Time;durP1;ratioP1;P1;durP2;ratioP2;P2;SDS_P1;SDS_P2;PMS_P1;PMS_P2;Temp;Humidity;BMP_temperature;BMP_pressure;BME280_temperature;BME280_humidity;BME280_pressure;Samples;Min_cycle;Max_cycle;Signal;HPM_P1;HPM_P2
2022/05/19 00:02:16;;;;;;;6.82;2.33;;;;;;;14.44;100.00;99022.28;4913669;29;20048;-83
2022/05/19 00:04:42;;;;;;;2.47;2.20;;;;;;;14.57;100.00;99016.88;4896817;29;20043;-86
2022/05/19 00:07:09;;;;;;;5.60;2.50;;;;;;;14.60;100.00;99013.00;4912853;29;20079;-83
2022/05/19 00:09:35;;;;;;;4.88;2.55;;;;;;;14.54;100.00;99014.69;4907777;29;20032;-83
2022/05/19 00:12:06;;;;;;;3.25;2.30;;;;;;;14.52;100.00;99013.28;4913667;29;20106;-85
2022/05/19 00:14:33;;;;;;;4.97;2.38;;;;;;;14.43;100.00;99010.13;4903087;29;20051;-84
2022/05/19 00:16:58;;;;;;;4.15;2.60;;;;;;;14.41;100.00;99009.53;4913254;29;20115;-83
2022/05/19 00:19:25;;;;;;;5.97;3.38;;;;;;;14.40;100.00;99021.94;4920818;29;20032;-84
2022/05/19 00:21:51;;;;;;;7.07;3.38;;;;;;;14.37;100.00;99027.66;4922853;29;20043;-84
2022/05/19 00:24:17;;;;;;;4.60;2.95;;;;;;;14.32;100.00;99019.56;4896662;29;20036;-84
2022/05/19 00:26:43;;;;;;;5.97;2.95;;;;;;;14.31;100.00;99009.25;4913498;29;20032;-84
2022/05/19 00:29:11;;;;;;;5.05;2.53;;;;;;;14.19;100.00;98998.63;4916553;29;20487;-83
2022/05/19 00:31:40;;;;;;;6.40;2.70;;;;;;;14.11;100.00;98987.31;4917749;29;20036;-84
2022/05/19 00:34:06;;;;;;;6.13;3.15;;;;;;;14.05;100.00;98977.63;4916869;29;20036;-84
2022/05/19 00:36:32;;;;;;;4.13;2.70;;;;;;;13.95;100.00;98995.78;4917696;29;20032;-84
2022/05/19 00:38:58;;;;;;;7.57;3.10;;;;;;;13.81;100.00;98997.75;4917806;29;20028;-85
2022/05/19 00:41:25;;;;;;;6.70;3.15;;;;;;;13.59;100.00;99005.25;4917245;29;20035;-86
2022/05/19 00:44:07;;;;;;;4.97;2.97;;;;;;;13.74;100.00;99013.63;4900033;29;20028;-86
2022/05/19 00:46:55;;;;;;;4.45;3.22;;;;;;;13.51;100.00;98993.13;4915576;29;20118;-85
2022/05/19 00:49:25;;;;;;;6.45;2.50;;;;;;;13.52;100.00;98973.66;4917493;29;20463;-84
2022/05/19 00:52:19;;;;;;;5.63;3.17;;;;;;;13.53;100.00;98981.31;4917440;29;20484;-85
2022/05/19 00:54:51;;;;;;;5.22;2.97;;;;;;;13.46;100.00;98975.31;4917033;29;20056;-85
2022/05/19 00:57:30;;;;;;;7.82;3.45;;;;;;;13.41;100.00;98972.50;4917393;29;20036;-84
2022/05/19 01:00:01;;;;;;;7.35;3.17;;;;;;;13.39;100.00;98969.25;4917736;29;20046;-84
2022/05/19 01:02:33;;;;;;;6.25;3.85;;;;;;;13.27;100.00;98961.25;4916109;29;20052;-84
2022/05/19 01:05:13;;;;;;;8.18;4.45;;;;;;;13.25;100.00;98964.06;4899138;29;20036;-85
2022/05/19 01:07:43;;;;;;;13.50;4.38;;;;;;;13.21;100.00;98956.81;4917023;29;20052;-84
2022/05/19 01:10:09;;;;;;;7.13;3.90;;;;;;;13.11;100.00;98958.09;4915453;29;20024;-84
2022/05/19 01:12:36;;;;;;;11.68;4.45;;;;;;;13.04;100.00;98967.06;4915836;29;20087;-84
2022/05/19 01:15:03;;;;;;;9.32;4.68;;;;;;;13.01;100.00;98989.38;4917101;29;20526;-84
2022/05/19 01:17:32;;;;;;;9.93;5.43;;;;;;;12.94;100.00;98972.78;4916829;29;20067;-84
2022/05/19 01:20:02;;;;;;;10.40;4.88;;;;;;;12.88;100.00;98978.91;4915979;29;20550;-84
2022/05/19 01:22:33;;;;;;;9.15;5.18;;;;;;;12.87;100.00;98975.47;4916768;29;20095;-84
2022/05/19 01:25:27;;;;;;;10.43;4.88;;;;;;;12.82;100.00;98978.72;4916962;29;20087;-85
2022/05/19 01:27:52;;;;;;;5.00;3.55;;;;;;;12.77;100.00;98970.66;4916885;29;20246;-84
2022/05/19 01:30:18;;;;;;;7.63;3.90;;;;;;;12.68;100.00;98975.34;4915818;29;20059;-85
2022/05/19 01:32:44;;;;;;;9.50;4.95;;;;;;;12.67;100.00;98993.97;4916634;29;20115;-84
2022/05/19 01:35:11;;;;;;;8.15;3.38;;;;;;;12.53;100.00;98994.06;4919140;29;20032;-85
2022/05/19 01:37:37;;;;;;;7.70;3.60;;;;;;;12.46;100.00;98989.81;4915743;29;20055;-85
2022/05/19 01:40:41;;;;;;;7.55;3.50;;;;;;;12.47;100.00;99004.59;4921547;29;20033;-85
2022/05/19 01:43:15;;;;;;;9.82;3.40;;;;;;;12.51;100.00;99011.06;4916974;29;20040;-84
2022/05/19 01:45:41;;;;;;;7.30;3.60;;;;;;;12.57;100.00;99018.13;4916484;29;20482;-85
2022/05/19 01:48:12;;;;;;;7.90;3.28;;;;;;;12.73;100.00;99010.78;4939331;29;20060;-85
2022/05/19 01:50:52;;;;;;;5.25;3.47;;;;;;;12.73;100.00;99005.50;4936434;29;20032;-84
2022/05/19 01:53:27;;;;;;;6.32;2.97;;;;;;;12.67;100.00;99013.22;4899760;29;20047;-83
2022/05/19 01:56:08;;;;;;;4.70;3.30;;;;;;;12.72;100.00;99023.16;4916034;29;20083;-84
2022/05/19 01:58:54;;;;;;;5.68;3.85;;;;;;;12.84;100.00;99026.72;4916519;29;20032;-85
2022/05/19 02:01:25;;;;;;;9.85;3.85;;;;;;;12.92;100.00;99033.59;4915857;29;20041;-83
2022/05/19 02:03:57;;;;;;;10.00;3.83;;;;;;;12.82;100.00;99022.72;4916408;29;21140;-84
2022/05/19 02:06:37;;;;;;;8.77;3.97;;;;;;;12.73;100.00;99014.22;4914224;29;20087;-85
2022/05/19 02:09:07;;;;;;;5.78;3.10;;;;;;;12.61;100.00;99010.63;4914266;29;20034;-84
2022/05/19 02:11:42;;;;;;;8.27;3.33;;;;;;;12.52;100.00;99007.41;4914420;29;20032;-83
2022/05/19 02:14:12;;;;;;;7.90;3.50;;;;;;;12.48;100.00;99006.22;4913848;29;20028;-84
2022/05/19 02:16:39;;;;;;;5.05;3.08;;;;;;;12.39;100.00;99019.63;4916163;29;20038;-84
2022/05/19 02:19:07;;;;;;;9.25;4.00;;;;;;;12.37;100.00;99021.63;4915917;29;20087;-84
2022/05/19 02:21:33;;;;;;;5.13;3.65;;;;;;;12.33;100.00;99028.31;4915916;29;20064;-84
2022/05/19 02:24:01;;;;;;;10.98;3.50;;;;;;;12.29;100.00;99019.22;4915971;29;20086;-83
2022/05/19 02:26:35;;;;;;;5.22;3.22;;;;;;;12.24;100.00;99025.09;4915144;29;20050;-84
2022/05/19 02:29:07;;;;;;;7.45;3.35;;;;;;;12.17;100.00;99018.22;4914953;29;20045;-85
2022/05/19 02:31:33;;;;;;;5.80;3.50;;;;;;;12.10;100.00;99016.44;4915320;29;20392;-85
2022/05/19 02:33:59;;;;;;;4.90;3.40;;;;;;;12.02;100.00;99023.72;4914745;29;20040;-84
2022/05/19 02:36:25;;;;;;;6.10;3.67;;;;;;;11.97;100.00;99017.22;4915898;29;20056;-84
2022/05/19 02:38:51;;;;;;;6.53;3.58;;;;;;;11.95;100.00;99018.44;4915331;29;20470;-84
2022/05/19 02:41:16;;;;;;;5.32;3.30;;;;;;;11.96;100.00;99025.31;4915812;29;20032;-84
2022/05/19 02:43:42;;;;;;;7.40;3.70;;;;;;;11.79;100.00;99020.47;4915378;29;20043;-85
2022/05/19 02:46:08;;;;;;;7.25;4.00;;;;;;;11.76;100.00;99012.97;4915683;29;20042;-84
2022/05/19 02:48:34;;;;;;;8.10;4.22;;;;;;;11.73;100.00;99010.75;4914424;29;20060;-85
2022/05/19 02:51:00;;;;;;;7.22;3.58;;;;;;;11.74;100.00;99015.00;4915513;29;20083;-84
2022/05/19 02:53:26;;;;;;;12.13;4.28;;;;;;;11.74;100.00;99011.56;4915302;29;20032;-85
2022/05/19 02:55:52;;;;;;;4.85;3.80;;;;;;;11.67;100.00;99007.09;4913895;29;20053;-84
2022/05/19 02:58:18;;;;;;;6.88;4.28;;;;;;;11.73;100.00;99013.38;4913879;29;20044;-84
2022/05/19 03:00:48;;;;;;;8.13;4.88;;;;;;;11.64;100.00;99012.78;4915514;29;20039;-85
2022/05/19 03:03:13;;;;;;;8.02;4.32;;;;;;;11.58;100.00;99009.13;4913283;29;20094;-85
2022/05/19 03:05:40;;;;;;;6.07;4.20;;;;;;;11.57;100.00;99006.72;4914851;29;20056;-83
2022/05/19 03:08:07;;;;;;;10.13;4.57;;;;;;;11.53;100.00;99006.31;4912581;29;20024;-84
2022/05/19 03:10:35;;;;;;;6.78;4.85;;;;;;;11.51;100.00;99008.31;4914736;29;20028;-84
2022/05/19 03:13:02;;;;;;;10.07;5.22;;;;;;;11.51;100.00;99000.44;4937279;28;20454;-85
2022/05/19 03:15:28;;;;;;;10.25;5.57;;;;;;;11.55;100.00;99006.91;4913609;29;20032;-84
2022/05/19 03:17:54;;;;;;;8.38;5.63;;;;;;;11.52;100.00;98999.44;4915271;29;20043;-85
2022/05/19 03:20:20;;;;;;;12.10;5.50;;;;;;;11.49;100.00;99004.28;4913809;29;20063;-84
2022/05/19 03:22:46;;;;;;;9.70;5.43;;;;;;;11.38;100.00;98998.63;4914710;29;20032;-85
2022/05/19 03:25:12;;;;;;;12.40;6.75;;;;;;;11.40;100.00;99001.06;4915286;29;20032;-85
2022/05/19 03:27:39;;;;;;;12.02;7.05;;;;;;;11.42;100.00;98999.81;4904419;29;20094;-85
2022/05/19 03:30:08;;;;;;;12.23;7.50;;;;;;;11.44;100.00;98997.00;4915065;29;20028;-85
2022/05/19 03:32:33;;;;;;;25.80;12.20;;;;;;;11.27;100.00;99000.00;4914905;29;20044;-84
2022/05/19 03:34:59;;;;;;;25.67;15.07;;;;;;;11.41;100.00;98995.59;4914647;29;20110;-83
2022/05/19 03:37:25;;;;;;;28.48;17.30;;;;;;;11.46;100.00;99000.25;4915130;29;20447;-84
2022/05/19 03:39:51;;;;;;;42.92;25.95;;;;;;;11.52;100.00;98998.63;4914596;29;20032;-83
2022/05/19 03:42:19;;;;;;;47.53;28.15;;;;;;;11.38;100.00;99003.88;4914142;29;20044;-85
2022/05/19 03:44:45;;;;;;;40.20;27.50;;;;;;;11.46;100.00;99005.50;4915219;29;20031;-84
2022/05/19 03:47:10;;;;;;;43.47;27.23;;;;;;;11.41;100.00;98992.16;4937049;28;20478;-83
2022/05/19 03:49:36;;;;;;;27.63;16.02;;;;;;;11.55;100.00;98993.75;4914709;29;20115;-84
2022/05/19 03:52:04;;;;;;;22.38;9.93;;;;;;;11.76;100.00;98988.50;4914629;29;20078;-83
2022/05/19 03:54:30;;;;;;;18.60;7.85;;;;;;;11.61;100.00;98996.63;4914667;29;20087;-84
2022/05/19 03:56:56;;;;;;;16.85;6.68;;;;;;;11.65;100.00;99014.41;4913051;29;20410;-84
2022/05/19 03:59:23;;;;;;;10.80;6.47;;;;;;;11.86;100.00;99021.28;4914533;29;20471;-83
2022/05/19 04:01:48;;;;;;;14.32;6.68;;;;;;;11.92;100.00;99017.03;4914420;29;20044;-84
2022/05/19 04:04:14;;;;;;;11.40;5.75;;;;;;;12.02;100.00;99019.28;4916285;29;20375;-84
2022/05/19 04:06:40;;;;;;;12.43;4.78;;;;;;;11.89;100.00;99021.88;4901268;29;20036;-84
2022/05/19 04:09:06;;;;;;;11.93;5.35;;;;;;;11.86;100.00;99030.97;4918350;29;20032;-85
2022/05/19 04:11:32;;;;;;;10.02;4.53;;;;;;;11.83;100.00;99026.94;4918387;29;20090;-84
2022/05/19 04:13:58;;;;;;;9.05;4.15;;;;;;;11.81;100.00;99023.72;4918280;29;20036;-86
2022/05/19 04:16:24;;;;;;;8.95;4.20;;;;;;;11.77;100.00;99033.00;4918177;29;20546;-84
2022/05/19 04:18:50;;;;;;;9.90;5.32;;;;;;;11.76;100.00;99030.59;4918072;29;20035;-84
2022/05/19 04:21:15;;;;;;;12.60;7.63;;;;;;;11.78;100.00;99029.34;4917875;29;20035;-83
2022/05/19 04:23:41;;;;;;;15.98;8.60;;;;;;;11.78;100.00;99018.84;4919124;29;20036;-82
2022/05/19 04:26:07;;;;;;;11.52;7.10;;;;;;;11.79;100.00;99025.75;4917818;29;20114;-84
2022/05/19 04:28:33;;;;;;;15.35;7.43;;;;;;;11.83;100.00;99026.13;4918265;29;20107;-85
2022/05/19 04:31:00;;;;;;;15.50;6.75;;;;;;;11.81;100.00;99028.97;4894117;29;20032;-85
2022/05/19 04:33:26;;;;;;;9.20;6.35;;;;;;;11.83;100.00;99036.66;4918351;29;20514;-84
2022/05/19 04:35:52;;;;;;;13.18;6.45;;;;;;;11.90;100.00;99032.22;4917768;29;20047;-84
2022/05/19 04:38:24;;;;;;;8.45;5.80;;;;;;;11.86;100.00;99026.53;4916796;29;20036;-84
2022/05/19 04:40:50;;;;;;;9.80;6.47;;;;;;;11.92;100.00;99021.47;4916279;29;20042;-85
2022/05/19 04:43:21;;;;;;;8.38;5.75;;;;;;;12.01;100.00;99028.19;4899535;29;20039;-84
2022/05/19 04:45:51;;;;;;;10.27;4.53;;;;;;;12.02;100.00;99021.91;4915972;29;20036;-84
2022/05/19 04:48:20;;;;;;;10.52;3.92;;;;;;;12.18;100.00;99022.47;4917614;29;20028;-82
2022/05/19 04:50:46;;;;;;;8.93;4.10;;;;;;;12.27;100.00;99016.78;4917698;29;20087;-83
2022/05/19 04:53:13;;;;;;;10.35;3.85;;;;;;;12.30;100.00;99012.94;4917637;29;20493;-84
2022/05/19 04:55:39;;;;;;;9.10;3.60;;;;;;;12.39;100.00;99034.59;4917655;29;20042;-83
2022/05/19 04:58:06;;;;;;;14.07;5.20;;;;;;;12.55;100.00;99033.31;4900195;29;20110;-83
2022/05/19 05:00:33;;;;;;;11.65;5.97;;;;;;;12.60;100.00;99046.69;4914134;29;20032;-85
2022/05/19 05:02:58;;;;;;;13.60;5.30;;;;;;;12.68;100.00;99053.56;4915896;29;20056;-82
2022/05/19 05:05:24;;;;;;;8.52;4.97;;;;;;;12.75;100.00;99049.06;4916476;29;20109;-82
2022/05/19 05:07:49;;;;;;;8.48;5.05;;;;;;;12.88;100.00;99056.09;4916748;29;20486;-83
2022/05/19 05:10:15;;;;;;;7.03;5.00;;;;;;;12.97;100.00;99052.22;4915986;29;20371;-84
2022/05/19 05:12:41;;;;;;;8.48;5.13;;;;;;;13.07;100.00;99061.50;4917438;29;20475;-83
2022/05/19 05:15:09;;;;;;;8.88;5.07;;;;;;;13.17;100.00;99061.03;4899537;29;20028;-83
2022/05/19 05:17:35;;;;;;;8.27;5.30;;;;;;;13.23;100.00;99052.28;4920264;29;20040;-83
2022/05/19 05:20:03;;;;;;;12.95;5.07;;;;;;;13.31;100.00;99057.31;4917611;29;20084;-84
2022/05/19 05:22:30;;;;;;;9.43;5.32;;;;;;;13.42;100.00;99053.19;4913307;29;20032;-82
2022/05/19 05:24:57;;;;;;;7.40;4.53;;;;;;;13.45;100.00;99052.78;4916179;29;20038;-83
2022/05/19 05:27:22;;;;;;;9.70;4.30;;;;;;;13.54;100.00;99056.78;4915574;29;20032;-83
2022/05/19 05:29:48;;;;;;;8.40;4.07;;;;;;;13.67;100.00;99060.34;4916767;29;20035;-83
2022/05/19 05:32:14;;;;;;;8.95;4.43;;;;;;;13.73;100.00;99056.84;4917023;29;20060;-83
2022/05/19 05:34:39;;;;;;;8.98;4.40;;;;;;;13.89;100.00;99062.63;4921283;29;20047;-83
2022/05/19 05:37:06;;;;;;;8.90;3.90;;;;;;;14.00;100.00;99054.81;4916114;29;20054;-83
2022/05/19 05:39:32;;;;;;;6.78;3.45;;;;;;;14.06;100.00;99041.78;4916662;29;20398;-82
2022/05/19 05:41:58;;;;;;;5.75;3.42;;;;;;;14.10;100.00;99056.16;4915443;29;20040;-83
2022/05/19 05:44:23;;;;;;;9.65;3.50;;;;;;;14.01;100.00;99058.28;4914645;29;20333;-82
2022/05/19 05:46:49;;;;;;;10.10;3.55;;;;;;;14.04;100.00;99055.19;4913835;29;20032;-83
2022/05/19 05:49:15;;;;;;;9.63;3.95;;;;;;;14.09;100.00;99063.25;4913912;29;20032;-86
2022/05/19 05:51:41;;;;;;;10.50;3.53;;;;;;;14.19;100.00;99064.59;4914958;29;20828;-84
2022/05/19 05:54:06;;;;;;;8.27;5.95;;;;;;;14.31;100.00;99068.13;4917554;29;20028;-83
2022/05/19 05:56:32;;;;;;;9.65;3.55;;;;;;;14.31;100.00;99070.78;4915311;29;20114;-84
2022/05/19 05:58:58;;;;;;;5.43;3.58;;;;;;;14.48;100.00;99070.22;4914972;29;21230;-84
2022/05/19 06:01:24;;;;;;;10.95;3.72;;;;;;;14.33;100.00;99067.94;4908761;29;20047;-83
2022/05/19 06:03:50;;;;;;;11.10;3.20;;;;;;;13.91;100.00;99063.22;4916278;29;20032;-83
2022/05/19 06:06:16;;;;;;;7.13;2.90;;;;;;;14.24;100.00;99065.56;4921941;29;20050;-81
2022/05/19 06:08:43;;;;;;;8.05;2.72;;;;;;;14.41;100.00;99071.09;4916086;29;20035;-82
2022/05/19 06:11:09;;;;;;;7.60;2.85;;;;;;;14.15;100.00;99061.59;4916590;29;20487;-82
2022/05/19 06:13:34;;;;;;;8.52;2.78;;;;;;;14.36;100.00;99068.31;4915850;29;20089;-81
2022/05/19 06:16:00;;;;;;;10.70;3.03;;;;;;;14.58;100.00;99067.88;4939409;29;20063;-81
2022/05/19 06:18:27;;;;;;;8.25;2.97;;;;;;;14.68;100.00;99078.72;4917334;29;20031;-81
2022/05/19 06:20:56;;;;;;;15.30;4.53;;;;;;;14.53;100.00;99067.72;4915464;29;20487;-81
2022/05/19 06:23:22;;;;;;;9.90;2.90;;;;;;;14.80;100.00;99067.47;4912529;29;20036;-80
2022/05/19 06:25:48;;;;;;;8.85;2.78;;;;;;;14.84;100.00;99071.25;4914892;29;20028;-80
2022/05/19 06:28:14;;;;;;;9.73;3.33;;;;;;;15.23;100.00;99079.72;4917542;29;20043;-80
2022/05/19 06:30:40;;;;;;;12.07;3.05;;;;;;;15.08;100.00;99081.94;4912151;29;20378;-81
2022/05/19 06:33:06;;;;;;;15.43;3.88;;;;;;;15.37;100.00;99090.13;4915734;29;20045;-81
2022/05/19 06:35:33;;;;;;;6.05;2.50;;;;;;;15.45;100.00;99100.38;4915174;29;20055;-81
2022/05/19 06:37:59;;;;;;;7.55;2.75;;;;;;;15.02;100.00;99096.06;4916229;29;20028;-82
2022/05/19 06:40:29;;;;;;;5.32;2.28;;;;;;;15.14;100.00;99107.50;4911352;29;20448;-82
2022/05/19 06:42:56;;;;;;;8.55;2.60;;;;;;;15.04;100.00;99110.69;4914122;29;20035;-81
2022/05/19 06:45:26;;;;;;;6.55;2.22;;;;;;;15.52;100.00;99122.25;4915330;29;20043;-81
2022/05/19 06:47:52;;;;;;;8.27;2.40;;;;;;;16.06;100.00;99126.00;4913941;29;20526;-81
2022/05/19 06:50:20;;;;;;;11.48;2.50;;;;;;;16.22;100.00;99127.97;4913636;29;20115;-81
2022/05/19 06:52:51;;;;;;;5.32;2.55;;;;;;;16.53;100.00;99133.16;4910905;29;20043;-81
2022/05/19 06:55:19;;;;;;;9.23;3.45;;;;;;;16.70;100.00;99139.38;4912652;29;20051;-81
2022/05/19 06:57:45;;;;;;;8.30;2.30;;;;;;;16.53;100.00;99143.75;4913764;29;20066;-82
2022/05/19 07:00:14;;;;;;;8.20;3.08;;;;;;;16.69;100.00;99140.38;4915262;29;20059;-80
2022/05/19 07:02:45;;;;;;;13.95;2.90;;;;;;;16.53;100.00;99144.53;4913577;29;20118;-81
2022/05/19 07:05:12;;;;;;;8.00;3.38;;;;;;;16.64;100.00;99129.66;4912933;29;20028;-84
2022/05/19 07:07:38;;;;;;;6.88;2.67;;;;;;;16.53;100.00;99131.28;4913631;29;20028;-82
2022/05/19 07:10:05;;;;;;;8.95;2.80;;;;;;;16.53;100.00;99141.09;4913777;29;20380;-83
2022/05/19 07:12:31;;;;;;;9.73;2.83;;;;;;;16.43;100.00;99136.38;4914011;29;20036;-83
2022/05/19 07:14:57;;;;;;;12.98;3.78;;;;;;;16.24;100.00;99140.97;4913911;29;20050;-81
2022/05/19 07:17:23;;;;;;;8.35;2.60;;;;;;;16.55;100.00;99158.38;4911009;29;20102;-81
2022/05/19 07:22:34;;;;;;;11.70;3.38;;;;;;;17.05;100.00;99163.41;4910572;29;20395;-83
2022/05/19 07:25:01;;;;;;;7.38;3.78;;;;;;;17.08;100.00;99161.09;4905281;29;20440;-83
2022/05/19 07:27:27;;;;;;;9.80;4.65;;;;;;;16.55;100.00;99154.91;4913208;29;20096;-81
2022/05/19 07:29:53;;;;;;;14.27;7.45;;;;;;;16.23;100.00;99152.59;4912594;29;20039;-82
2022/05/19 07:32:21;;;;;;;19.73;9.40;;;;;;;15.98;100.00;99150.94;4914803;29;20088;-82
2022/05/19 07:34:48;;;;;;;14.85;9.02;;;;;;;16.67;100.00;99152.25;4913684;29;20443;-82
2022/05/19 07:37:14;;;;;;;15.15;8.55;;;;;;;16.46;100.00;99141.22;4913458;29;20036;-82
2022/05/19 07:39:39;;;;;;;12.68;7.97;;;;;;;16.15;100.00;99142.34;4913964;29;20074;-83
2022/05/19 07:42:06;;;;;;;18.02;8.30;;;;;;;16.74;100.00;99130.94;4914296;29;20040;-83
2022/05/19 07:44:32;;;;;;;13.02;6.55;;;;;;;17.19;100.00;99114.38;4913323;29;20123;-83
2022/05/19 07:46:58;;;;;;;9.55;5.22;;;;;;;16.95;100.00;99126.84;4909422;29;20088;-82
2022/05/19 07:49:24;;;;;;;10.98;5.15;;;;;;;17.02;100.00;99129.41;4914622;29;21831;-82
2022/05/19 07:51:50;;;;;;;7.95;4.93;;;;;;;17.08;100.00;99139.06;4912713;29;20523;-81
2022/05/19 07:54:24;;;;;;;11.40;5.03;;;;;;;17.12;100.00;99146.31;4912123;29;20048;-81
2022/05/19 07:56:50;;;;;;;11.88;4.82;;;;;;;16.79;100.00;99146.94;4912649;29;20040;-81
2022/05/19 07:59:16;;;;;;;8.90;3.60;;;;;;;16.88;100.00;99153.50;4915142;29;21601;-82
2022/05/19 08:01:43;;;;;;;12.18;4.45;;;;;;;17.24;100.00;99140.97;4914132;29;20051;-82
2022/05/19 08:04:09;;;;;;;8.90;3.90;;;;;;;17.35;100.00;99133.22;4914470;29;20479;-83
2022/05/19 08:06:35;;;;;;;7.55;3.72;;;;;;;16.83;100.00;99140.94;4914112;29;20024;-84
2022/05/19 08:10:20;;;;;;;7.20;3.83;;;;;;;16.22;100.00;99149.16;4912113;29;20386;-83
2022/05/19 08:11:48;;;;;;;11.80;3.75;;;;;;;16.15;100.00;99151.09;4912846;29;20467;-83
2022/05/19 08:16:58;;;;;;;11.57;3.90;;;;;;;17.05;100.00;99144.84;4913444;29;20451;-83
2022/05/19 08:19:24;;;;;;;11.75;4.40;;;;;;;17.05;100.00;99142.19;4914066;29;20028;-82
2022/05/19 08:21:50;;;;;;;10.73;3.70;;;;;;;17.18;100.00;99133.16;4914370;29;20039;-82
2022/05/19 08:24:17;;;;;;;9.10;3.25;;;;;;;16.96;100.00;99139.88;4914049;29;20123;-83
2022/05/19 08:26:42;;;;;;;10.23;4.03;;;;;;;17.39;100.00;99132.53;4912374;29;20032;-83
2022/05/19 08:29:08;;;;;;;11.55;3.97;;;;;;;17.27;100.00;99142.38;4913222;29;20474;-82
2022/05/19 08:31:33;;;;;;;12.90;3.97;;;;;;;17.54;100.00;99134.66;4913975;29;20040;-82
2022/05/19 08:34:03;;;;;;;7.55;3.33;;;;;;;17.51;100.00;99132.47;4914133;29;20036;-83
2022/05/19 08:36:29;;;;;;;10.18;3.25;;;;;;;17.84;100.00;99149.47;4913995;29;20131;-82
2022/05/19 08:38:56;;;;;;;13.45;3.58;;;;;;;18.05;100.00;99170.31;4913946;29;20035;-82
2022/05/19 08:41:30;;;;;;;13.68;4.20;;;;;;;17.41;100.00;99156.16;4914095;29;20048;-83
2022/05/19 08:44:16;;;;;;;9.13;3.92;;;;;;;17.46;100.00;99169.50;4913811;29;20115;-83
2022/05/19 08:46:46;;;;;;;12.48;4.40;;;;;;;17.31;100.00;99185.16;4912388;29;20087;-82
2022/05/19 08:49:41;;;;;;;11.30;3.70;;;;;;;17.30;100.00;99191.50;4917081;29;20043;-83
2022/05/19 08:52:16;;;;;;;9.23;4.00;;;;;;;17.46;100.00;99185.44;4915336;29;20036;-82
2022/05/19 08:54:46;;;;;;;13.95;4.80;;;;;;;17.68;100.00;99203.34;4916872;29;20059;-83
2022/05/19 08:57:28;;;;;;;9.18;4.00;;;;;;;16.47;100.00;99206.41;4916983;29;20036;-82
2022/05/19 09:00:06;;;;;;;7.13;4.13;;;;;;;16.55;100.00;99218.50;4940424;28;20044;-83
2022/05/19 09:02:54;;;;;;;8.63;3.58;;;;;;;16.97;100.00;99215.75;4916336;29;20482;-84
2022/05/19 09:05:42;;;;;;;9.85;4.00;;;;;;;17.05;100.00;99219.09;4916554;29;20060;-83
2022/05/19 09:08:30;;;;;;;10.75;3.97;;;;;;;17.60;100.00;99222.31;4916558;29;20040;-84
2022/05/19 09:11:21;;;;;;;12.52;4.13;;;;;;;17.78;100.00;99231.94;4917709;29;20095;-84
2022/05/19 09:13:56;;;;;;;10.27;3.78;;;;;;;18.29;100.00;99249.84;4916884;29;20040;-83
2022/05/19 09:16:30;;;;;;;9.02;3.83;;;;;;;18.83;100.00;99249.34;4916725;29;20487;-84
2022/05/19 09:19:06;;;;;;;5.55;3.58;;;;;;;19.32;100.00;99261.22;4917006;29;20062;-83
2022/05/19 09:21:33;;;;;;;8.50;4.10;;;;;;;19.63;100.00;99261.59;4912148;29;20047;-83
2022/05/19 09:23:59;;;;;;;10.00;4.90;;;;;;;18.70;98.82;99261.97;4915351;29;20436;-82
2022/05/19 09:26:49;;;;;;;15.38;5.28;;;;;;;19.00;97.77;99257.34;4914267;29;20032;-84
2022/05/19 09:29:22;;;;;;;12.77;5.28;;;;;;;19.36;97.07;99257.00;4916102;29;20091;-81
2022/05/19 09:31:53;;;;;;;12.40;8.80;;;;;;;19.38;96.97;99260.22;4915924;29;20031;-81
2022/05/19 09:34:26;;;;;;;16.13;8.70;;;;;;;20.29;93.53;99250.03;4915468;29;20475;-81
2022/05/19 09:37:04;;;;;;;13.15;10.27;;;;;;;19.55;91.97;99260.97;4915632;29;20129;-81
2022/05/19 09:39:34;;;;;;;14.32;10.48;;;;;;;18.83;94.37;99271.44;4935250;29;20108;-81
2022/05/19 09:42:09;;;;;;;16.25;12.77;;;;;;;18.01;98.16;99283.34;4913318;29;20067;-81
2022/05/19 09:44:40;;;;;;;15.90;11.75;;;;;;;18.31;96.02;99293.75;4915627;29;20047;-80
2022/05/19 09:47:20;;;;;;;17.23;11.07;;;;;;;17.91;97.66;99302.56;4914294;29;20028;-81
2022/05/19 09:49:53;;;;;;;13.68;10.43;;;;;;;18.06;100.00;99308.16;4913743;29;20032;-82
2022/05/19 09:52:24;;;;;;;13.02;8.32;;;;;;;18.31;96.67;99306.22;4914752;29;20497;-83
2022/05/19 09:54:56;;;;;;;9.80;6.00;;;;;;;17.87;94.80;99317.31;4916429;29;20035;-81
2022/05/19 09:57:26;;;;;;;11.63;6.68;;;;;;;18.60;95.49;99314.94;4916517;29;20028;-82
2022/05/19 09:59:57;;;;;;;12.73;6.53;;;;;;;17.90;96.16;99322.19;4914185;29;20116;-82
2022/05/19 10:02:38;;;;;;;10.32;5.80;;;;;;;17.49;97.96;99320.31;4915489;29;20056;-82
2022/05/19 10:05:25;;;;;;;8.23;5.15;;;;;;;17.56;98.26;99328.13;4898917;29;20532;-82
2022/05/19 10:07:57;;;;;;;10.20;5.20;;;;;;;17.79;98.13;99321.97;4915731;29;20058;-82
2022/05/19 10:10:28;;;;;;;13.20;5.68;;;;;;;17.71;99.05;99332.97;4915509;29;20036;-81
2022/05/19 10:13:02;;;;;;;12.43;5.18;;;;;;;17.56;100.00;99333.44;4915420;29;20068;-81
2022/05/19 10:15:42;;;;;;;13.63;6.10;;;;;;;16.62;100.00;99333.16;4915814;29;20042;-82
2022/05/19 10:18:20;;;;;;;8.07;5.55;;;;;;;16.54;100.00;99328.19;4915925;29;20036;-81
2022/05/19 10:21:15;;;;;;;9.55;5.72;;;;;;;16.67;100.00;99319.22;4915289;29;20059;-82
2022/05/19 10:24:07;;;;;;;10.88;5.50;;;;;;;16.83;100.00;99320.41;4937712;29;20044;-82
2022/05/19 10:31:02;;;;;;;9.73;6.03;;;;;;;17.05;99.29;99343.72;4914526;29;20044;-81
2022/05/19 10:33:15;;;;;;;9.52;5.63;;;;;;;18.52;97.78;99333.97;4915399;29;20099;-82
2022/05/19 10:35:56;;;;;;;7.22;5.53;;;;;;;17.85;94.92;99322.88;4915901;29;20040;-82
2022/05/19 10:38:45;;;;;;;10.25;7.47;;;;;;;17.70;93.98;99341.97;4889986;29;20088;-81
2022/05/19 10:41:31;;;;;;;12.13;7.57;;;;;;;17.58;95.07;99338.53;4914805;29;20036;-81
2022/05/19 10:44:12;;;;;;;10.32;7.80;;;;;;;16.83;96.65;99341.59;4914286;29;20028;-82
2022/05/19 10:46:41;;;;;;;8.45;6.85;;;;;;;17.44;96.72;99344.06;4915722;29;20031;-82
2022/05/19 10:49:14;;;;;;;12.75;8.35;;;;;;;17.63;95.16;99342.09;4913131;29;20131;-81
2022/05/19 10:52:06;;;;;;;13.27;8.05;;;;;;;18.79;93.94;99346.63;4915100;29;20050;-82
2022/05/19 10:54:53;;;;;;;12.73;7.38;;;;;;;17.67;94.88;99351.22;4913271;29;20046;-81
2022/05/19 10:57:40;;;;;;;14.52;8.07;;;;;;;17.96;94.38;99343.28;4914516;29;20040;-81
2022/05/19 11:00:15;;;;;;;12.90;6.93;;;;;;;17.58;94.98;99341.19;4914687;29;20111;-81
2022/05/19 11:03:05;;;;;;;11.18;6.30;;;;;;;17.72;92.18;99342.56;4914959;29;20131;-81
2022/05/19 11:06:08;;;;;;;6.65;6.03;;;;;;;17.79;92.73;99345.88;4900534;29;20137;-82
2022/05/19 11:08:54;;;;;;;10.02;4.85;;;;;;;17.45;92.95;99340.38;4913897;29;20094;-81
2022/05/19 11:11:38;;;;;;;7.57;4.80;;;;;;;16.99;94.85;99335.66;4913666;29;20035;-81
2022/05/19 11:14:16;;;;;;;9.80;5.43;;;;;;;17.42;94.81;99346.16;4914774;29;20060;-81
2022/05/19 11:16:47;;;;;;;11.30;6.00;;;;;;;17.39;93.56;99333.34;4914986;29;20050;-81
2022/05/19 11:19:18;;;;;;;11.77;5.70;;;;;;;17.82;93.49;99331.34;4914632;29;20048;-81
2022/05/19 11:21:51;;;;;;;10.57;5.35;;;;;;;18.31;91.71;99338.09;4914464;29;20039;-81
2022/05/19 11:27:38;;;;;;;9.73;5.35;;;;;;;18.08;91.67;99324.69;4914284;29;20031;-81
2022/05/19 11:30:16;;;;;;;10.40;5.13;;;;;;;17.76;94.26;99325.09;4914060;29;20047;-81
2022/05/19 11:32:44;;;;;;;12.63;5.63;;;;;;;18.08;92.96;99332.66;4913693;29;20032;-82
2022/05/19 11:35:18;;;;;;;10.60;5.25;;;;;;;18.61;91.50;99329.84;4914466;29;20036;-81
2022/05/19 11:38:12;;;;;;;11.13;5.95;;;;;;;18.78;89.50;99326.41;4913375;29;20139;-81
2022/05/19 11:40:43;;;;;;;8.27;5.07;;;;;;;19.05;89.67;99325.78;4912517;29;20032;-81
2022/05/19 11:43:29;;;;;;;8.90;5.45;;;;;;;19.66;89.31;99325.00;4914440;29;20123;-81
2022/05/19 11:46:07;;;;;;;11.77;5.35;;;;;;;19.55;89.79;99319.53;4914226;29;20406;-82
2022/05/19 11:57:33;;;;;;;8.45;5.13;;;;;;;19.81;87.66;99327.84;4914131;29;20059;-82
2022/05/19 12:00:00;;;;;;;13.68;5.15;;;;;;;19.88;86.43;99332.19;4913180;29;20024;-82